hero-logo

Top 15 Knowers of FIS Fidelity National Info Serv - 2017-07-25

Rank Fund Result (K)
1 Incline Global Management Llc $2,271
2 Squarepoint Ops Llc $906
3 Gotham Asset Management Llc $533
4 Hutchin Hill Capital Lp $503
5 Partners Group Holding Ag $500
6 Caldera Capital Llc $402
7 Ahl Partners Llp $364
8 Carlson Capital L P $348
9 Blair William Co Il $262
10 Silvercrest Asset Management Group Llc $168
11 Raymond James Associates $161
12 Northwestern Mutual Investment Management Company Llc $114
13 Gsa Capital Partners Llp $62
14 Sunriver Management Llc $55
15 Highbridge Capital Management Llc $53
Price Chart and News From Google Finance for FIS Fidelity National Info Serv
Owner Date Shares Change Price Change Result (K)
Acrospire Investment Management Llc 2017-03-31 -1,600 $3.98 $-6
Advantage Investment Management Llc 2017-03-31 -383 $3.98 $-1
Ahl Partners Llp 2017-03-31 91,608 $3.98 $364
Aldebaran Financial Inc 2017-03-31 0 $3.98 $0
Alkeon Capital Management Llc 2017-03-31 0 $3.98 $0
Amalgamated Bank 2017-03-31 -5,448 $3.98 $-21
Annex Advisory Services Llc 2017-03-31 1,836 $3.98 $7
Aperio Group Llc 2017-03-31 7,140 $3.98 $28
Archford Capital Strategies Llc 2017-03-31 0 $3.98 $0
A R T Advisors Llc 2017-03-31 -44,500 $3.98 $-177
Assetmark Inc 2017-03-31 -250 $3.98 $0
Bahl Gaynor Inc 2017-03-31 -282 $3.98 $-1
Balentine Llc 2017-03-31 200 $3.98 $0
Bishop Rock Capital L P 2017-03-31 -120,971 $3.98 $-481
Blair William Co Il 2017-03-31 66,011 $3.98 $262
Bluemar Capital Management Llc 2017-03-31 -11,373 $3.98 $-45
Bokf Na 2017-03-31 100 $3.98 $0
Boston Private Wealth Llc 2017-03-31 7,183 $3.98 $28
Brinker Capital Inc 2017-03-31 3,327 $3.98 $13
Brown Brothers Harriman Co 2017-03-31 0 $3.98 $0
Bush Odonnell Investment Advisors Inc 2017-03-31 0 $3.98 $0
Caldera Capital Llc 2017-03-31 101,116 $3.98 $402
California State Teachers Retirement System 2017-03-31 -30,000 $3.98 $-119
Capital Guardian Trust Co 2017-03-31 -135 $3.98 $0
Carlson Capital L P 2017-03-31 87,512 $3.98 $348
Caxton Associates Lp 2017-03-31 7,000 $3.98 $27
Chartwell Investment Partners Llc 2017-03-31 -38,717 $3.98 $-154
Compagnie Lombard Odier Scma 2017-03-31 -8,000 $3.98 $-31
Cornerstone Capital Management Holdings Llc 2017-03-31 -3,873 $3.98 $-15
Crawford Investment Counsel Inc 2017-03-31 -5,501 $3.98 $-21
D A Davidson Co 2017-03-31 9,113 $3.98 $36
Dana Investment Advisors Inc 2017-03-31 0 $3.98 $0
Dixon Hubard Feinour Brown Inc Va 2017-03-31 0 $3.98 $0
Eagle Capital Management Llc 2017-03-31 -55,948 $3.98 $-222
Eagle Global Advisors Llc 2017-03-31 1,238 $3.98 $4
Earnest Partners Llc 2017-03-31 -155 $3.98 $0
Echo Street Capital Management Llc 2017-03-31 -215,202 $3.98 $-856
Edgestream Partners L P 2017-03-31 11,751 $3.98 $46
Envestnet Asset Management Inc 2017-03-31 3 $3.98 $0
Fairfield Bush Co 2017-03-31 0 $3.98 $0
Fdo Partners Llc 2017-03-31 3,194 $3.98 $12
Fdx Advisors Inc 2017-03-31 -1,578 $3.98 $-6
First Republic Investment Management Inc 2017-03-31 2,111 $3.98 $8
Fortaleza Asset Management Inc 2017-03-31 -60 $3.98 $0
Genesee Valley Trust Co 2017-03-31 -274 $3.98 $-1
Glassman Wealth Services 2017-03-31 0 $3.98 $0
Glen Harbor Capital Management Llc 2017-03-31 1,072 $3.98 $4
Glg Llc 2017-03-31 -22 $3.98 $0
Gotham Asset Management Llc 2017-03-31 134,021 $3.98 $533
Gsa Capital Partners Llp 2017-03-31 15,720 $3.98 $62
Guggenheim Capital Llc 2017-03-31 12,330 $3.98 $49
Highbridge Capital Management Llc 2017-03-31 13,414 $3.98 $53
Highlander Capital Management Llc 2017-03-31 0 $3.98 $0
Horizon Kinetics Llc 2017-03-31 -200 $3.98 $0
Hutchin Hill Capital Lp 2017-03-31 126,400 $3.98 $503
Ifp Advisors Inc 2017-03-31 -95 $3.98 $0
Iht Wealth Management Llc 2017-03-31 0 $3.98 $0
Incline Global Management Llc 2017-03-31 570,732 $3.98 $2,271
Jane Street Group Llc 2017-03-31 -24,418 $3.98 $-97
Kentucky Retirement Systems 2017-03-31 -2,739 $3.98 $-10
Kentucky Retirement Systems Insurance Trust Fund 2017-03-31 -1,737 $3.98 $-6
Kernodle Katon Asset Management Group Llc 2017-03-31 0 $3.98 $0
Kidder Stephen W 2017-03-31 0 $3.98 $0
Krilogy Financial Llc 2017-03-31 0 $3.98 $0
Ladenburg Thalmann Financial Services Inc 2017-03-31 -1,087 $3.98 $-4
Laffer Investments 2017-03-31 0 $3.98 $0
Laurel Wealth Advisors Inc 2017-03-31 1 $3.98 $0
Level Four Advisory Services Llc 2017-03-31 8,626 $3.98 $34
Loomis Sayles Co L P 2017-03-31 0 $3.98 $0
Marietta Investment Partners Llc 2017-03-31 0 $3.98 $0
Mariner Wealth Advisors Llc 2017-03-31 253 $3.98 $1
Mason Street Advisors Llc 2017-03-31 535 $3.98 $2
Miles Capital Inc 2017-03-31 -2,700 $3.98 $-10
Moore Capital Management Lp 2017-03-31 -650,959 $3.98 $-2,590
Neuburgh Advisers Llc 2017-03-31 2,278 $3.98 $9
New York Life Trust Co 2017-03-31 -160 $3.98 $0
Nitorum Capital L P 2017-03-31 2,631 $3.98 $10
Northwestern Mutual Investment Management Company Llc 2017-03-31 28,770 $3.98 $114
Northwestern Mutual Wealth Management Co 2017-03-31 -1,386 $3.98 $-5
Palestra Capital Management Llc 2017-03-31 -593,267 $3.98 $-2,361
Paloma Partners Management Co 2017-03-31 -94,247 $3.98 $-375
Partners Group Holding Ag 2017-03-31 125,808 $3.98 $500
Piedmont Investment Advisors Llc 2017-03-31 -926 $3.98 $-3
Pinkerton Retirement Specialists Llc 2017-03-31 -72 $3.98 $0
Polar Capital Llp 2017-03-31 -60,289 $3.98 $-239
Proficio Capital Partners Llc 2017-03-31 39 $3.98 $0
Public Employees Retirement System Of Ohio 2017-03-31 0 $3.98 $0
Raymond James Associates 2017-03-31 40,592 $3.98 $161
Richard Bernstein Advisors Llc 2017-03-31 0 $3.98 $0
Riverhead Capital Management Llc 2017-03-31 1,876 $3.98 $7
Rosenblum Silverman Sutton S F Inc Ca 2017-03-31 -1,127 $3.98 $-4
Rothschild Asset Management Inc 2017-03-31 -1,074 $3.98 $-4
Roystone Capital Management Lp 2017-03-31 -792,000 $3.98 $-3,152
Salem Investment Counselors Inc 2017-03-31 0 $3.98 $0
Schonfeld Strategic Advisors Llc 2017-03-31 11,844 $3.98 $47
Sciencast Management Lp 2017-03-31 4,543 $3.98 $18
Segall Bryant Hamill Llc 2017-03-31 897 $3.98 $3
Seven Eight Capital Lp 2017-03-31 -20,900 $3.98 $-83
Silvercrest Asset Management Group Llc 2017-03-31 42,228 $3.98 $168
Squarepoint Ops Llc 2017-03-31 227,682 $3.98 $906
Srs Capital Advisors Inc 2017-03-31 0 $3.98 $0
Sterling Capital Management Llc 2017-03-31 -73,195 $3.98 $-291
Stifel Financial Corp 2017-03-31 -13,919 $3.98 $-55
Summit Global Investments 2017-03-31 11,280 $3.98 $44
Sunriver Management Llc 2017-03-31 14,000 $3.98 $55
Sva Plumb Wealth Management Llc 2017-03-31 6,462 $3.98 $25
Tyers Asset Management Llc 2017-03-31 1,474 $3.98 $5
United Capital Financial Advisers Llc 2017-03-31 23 $3.98 $0
Usa Financial Portformulas Corp 2017-03-31 -35,753 $3.98 $-142
Valinor Management L P 2017-03-31 -114,289 $3.98 $-454
Veritable L P 2017-03-31 126 $3.98 $0
Verition Fund Management Llc 2017-03-31 -5,833 $3.98 $-23
Voloridge Investment Management Llc 2017-03-31 -16,558 $3.98 $-65
Walleye Trading Llc 2017-03-31 -11,685 $3.98 $-46
Wall Street Access Asset Management Llc 2017-03-31 -69,875 $3.98 $-278
Webster Bank N A 2017-03-31 130 $3.98 $0
Weitz Investment Management Inc 2017-03-31 0 $3.98 $0
Westside Investment Management Inc 2017-03-31 -246 $3.98 $0
Westwood Holdings Group Inc 2017-03-31 -2,015 $3.98 $-8
Yorkbridge Wealth Partners Llc 2017-03-31 0 $3.98 $0